sensor_id;sensor_type;location;lat;lon;timestamp;P1;durP1;ratioP1;P2;durP2;ratioP2
80425;SDS011;69766;51.476;5.704;2024-02-26T00:01:38;8.07;;;3.80;;
80425;SDS011;69766;51.476;5.704;2024-02-26T00:04:04;8.07;;;3.88;;
80425;SDS011;69766;51.476;5.704;2024-02-26T00:06:30;11.40;;;3.50;;
80425;SDS011;69766;51.476;5.704;2024-02-26T00:08:56;7.40;;;3.42;;
80425;SDS011;69766;51.476;5.704;2024-02-26T00:11:22;7.28;;;3.38;;
80425;SDS011;69766;51.476;5.704;2024-02-26T00:13:48;7.65;;;3.50;;
80425;SDS011;69766;51.476;5.704;2024-02-26T00:16:14;6.10;;;3.28;;
80425;SDS011;69766;51.476;5.704;2024-02-26T00:18:46;8.20;;;3.63;;
80425;SDS011;69766;51.476;5.704;2024-02-26T00:21:12;8.15;;;3.40;;
80425;SDS011;69766;51.476;5.704;2024-02-26T00:23:38;11.55;;;3.80;;
80425;SDS011;69766;51.476;5.704;2024-02-26T00:26:03;9.27;;;3.78;;
80425;SDS011;69766;51.476;5.704;2024-02-26T00:28:32;7.70;;;3.95;;
80425;SDS011;69766;51.476;5.704;2024-02-26T00:30:57;7.03;;;3.08;;
80425;SDS011;69766;51.476;5.704;2024-02-26T00:33:23;7.55;;;3.50;;
80425;SDS011;69766;51.476;5.704;2024-02-26T00:35:49;6.45;;;3.38;;
80425;SDS011;69766;51.476;5.704;2024-02-26T00:38:14;8.02;;;3.67;;
80425;SDS011;69766;51.476;5.704;2024-02-26T00:40:40;6.95;;;3.83;;
80425;SDS011;69766;51.476;5.704;2024-02-26T00:43:06;7.65;;;3.88;;
80425;SDS011;69766;51.476;5.704;2024-02-26T00:45:32;5.43;;;3.33;;
80425;SDS011;69766;51.476;5.704;2024-02-26T00:47:58;7.80;;;3.63;;
80425;SDS011;69766;51.476;5.704;2024-02-26T00:50:26;8.27;;;3.47;;
80425;SDS011;69766;51.476;5.704;2024-02-26T00:52:55;6.97;;;3.38;;
80425;SDS011;69766;51.476;5.704;2024-02-26T00:55:21;8.02;;;3.40;;
80425;SDS011;69766;51.476;5.704;2024-02-26T00:57:53;9.13;;;3.42;;
80425;SDS011;69766;51.476;5.704;2024-02-26T01:00:18;6.05;;;3.08;;
80425;SDS011;69766;51.476;5.704;2024-02-26T01:02:44;6.78;;;3.45;;
80425;SDS011;69766;51.476;5.704;2024-02-26T01:05:11;8.10;;;3.17;;
80425;SDS011;69766;51.476;5.704;2024-02-26T01:07:37;7.85;;;3.10;;
80425;SDS011;69766;51.476;5.704;2024-02-26T01:10:04;9.57;;;3.47;;
80425;SDS011;69766;51.476;5.704;2024-02-26T01:12:31;5.22;;;3.17;;
80425;SDS011;69766;51.476;5.704;2024-02-26T01:14:58;7.75;;;3.17;;
80425;SDS011;69766;51.476;5.704;2024-02-26T01:17:23;7.28;;;3.15;;
80425;SDS011;69766;51.476;5.704;2024-02-26T01:19:49;7.05;;;3.20;;
80425;SDS011;69766;51.476;5.704;2024-02-26T01:22:15;4.72;;;2.78;;
80425;SDS011;69766;51.476;5.704;2024-02-26T01:24:40;6.97;;;3.38;;
80425;SDS011;69766;51.476;5.704;2024-02-26T01:27:06;7.03;;;3.47;;
80425;SDS011;69766;51.476;5.704;2024-02-26T01:29:34;6.80;;;3.25;;
80425;SDS011;69766;51.476;5.704;2024-02-26T01:31:59;6.40;;;3.35;;
80425;SDS011;69766;51.476;5.704;2024-02-26T01:34:25;7.63;;;3.65;;
80425;SDS011;69766;51.476;5.704;2024-02-26T01:36:51;7.15;;;3.35;;
80425;SDS011;69766;51.476;5.704;2024-02-26T01:39:16;6.57;;;3.20;;
80425;SDS011;69766;51.476;5.704;2024-02-26T01:41:42;9.00;;;3.97;;
80425;SDS011;69766;51.476;5.704;2024-02-26T01:44:08;5.75;;;3.55;;
80425;SDS011;69766;51.476;5.704;2024-02-26T01:46:38;6.90;;;3.80;;
80425;SDS011;69766;51.476;5.704;2024-02-26T01:49:04;7.97;;;3.95;;
80425;SDS011;69766;51.476;5.704;2024-02-26T01:51:31;7.30;;;3.85;;
80425;SDS011;69766;51.476;5.704;2024-02-26T01:53:58;7.20;;;3.47;;
80425;SDS011;69766;51.476;5.704;2024-02-26T01:56:28;6.90;;;3.63;;
80425;SDS011;69766;51.476;5.704;2024-02-26T01:58:57;5.70;;;3.67;;
80425;SDS011;69766;51.476;5.704;2024-02-26T02:01:25;7.80;;;3.50;;
80425;SDS011;69766;51.476;5.704;2024-02-26T02:03:52;9.27;;;4.03;;
80425;SDS011;69766;51.476;5.704;2024-02-26T02:06:19;9.20;;;4.60;;
80425;SDS011;69766;51.476;5.704;2024-02-26T02:08:46;6.68;;;4.03;;
80425;SDS011;69766;51.476;5.704;2024-02-26T02:11:12;6.40;;;3.80;;
80425;SDS011;69766;51.476;5.704;2024-02-26T02:13:39;8.88;;;4.60;;
80425;SDS011;69766;51.476;5.704;2024-02-26T02:16:05;6.90;;;4.03;;
80425;SDS011;69766;51.476;5.704;2024-02-26T02:18:31;8.27;;;4.10;;
80425;SDS011;69766;51.476;5.704;2024-02-26T02:20:59;7.32;;;4.45;;
80425;SDS011;69766;51.476;5.704;2024-02-26T02:23:25;9.80;;;5.20;;
80425;SDS011;69766;51.476;5.704;2024-02-26T02:25:51;7.93;;;4.75;;
80425;SDS011;69766;51.476;5.704;2024-02-26T02:28:18;9.15;;;4.63;;
80425;SDS011;69766;51.476;5.704;2024-02-26T02:30:44;10.13;;;5.93;;
80425;SDS011;69766;51.476;5.704;2024-02-26T02:33:10;12.55;;;4.88;;
80425;SDS011;69766;51.476;5.704;2024-02-26T02:35:37;10.75;;;5.75;;
80425;SDS011;69766;51.476;5.704;2024-02-26T02:38:03;10.93;;;6.13;;
80425;SDS011;69766;51.476;5.704;2024-02-26T02:40:29;12.23;;;5.80;;
80425;SDS011;69766;51.476;5.704;2024-02-26T02:42:54;13.07;;;5.65;;
80425;SDS011;69766;51.476;5.704;2024-02-26T02:45:20;10.25;;;6.28;;
80425;SDS011;69766;51.476;5.704;2024-02-26T02:47:46;10.65;;;5.60;;
80425;SDS011;69766;51.476;5.704;2024-02-26T02:50:11;10.40;;;5.78;;
80425;SDS011;69766;51.476;5.704;2024-02-26T02:52:37;9.05;;;5.15;;
80425;SDS011;69766;51.476;5.704;2024-02-26T02:55:03;9.77;;;5.63;;
80425;SDS011;69766;51.476;5.704;2024-02-26T02:57:29;10.85;;;5.30;;
80425;SDS011;69766;51.476;5.704;2024-02-26T02:59:55;10.35;;;5.60;;
80425;SDS011;69766;51.476;5.704;2024-02-26T03:02:21;7.07;;;4.80;;
80425;SDS011;69766;51.476;5.704;2024-02-26T03:04:49;10.35;;;6.05;;
80425;SDS011;69766;51.476;5.704;2024-02-26T03:07:15;7.45;;;5.43;;
80425;SDS011;69766;51.476;5.704;2024-02-26T03:09:41;10.55;;;5.85;;
80425;SDS011;69766;51.476;5.704;2024-02-26T03:12:07;8.38;;;5.15;;
80425;SDS011;69766;51.476;5.704;2024-02-26T03:14:33;7.68;;;4.93;;
80425;SDS011;69766;51.476;5.704;2024-02-26T03:17:02;9.95;;;5.53;;
80425;SDS011;69766;51.476;5.704;2024-02-26T03:19:28;12.23;;;6.18;;
80425;SDS011;69766;51.476;5.704;2024-02-26T03:21:56;11.80;;;5.60;;
80425;SDS011;69766;51.476;5.704;2024-02-26T03:24:22;8.98;;;5.47;;
80425;SDS011;69766;51.476;5.704;2024-02-26T03:26:48;8.23;;;5.50;;
80425;SDS011;69766;51.476;5.704;2024-02-26T03:29:17;8.98;;;5.15;;
80425;SDS011;69766;51.476;5.704;2024-02-26T03:31:42;12.50;;;5.28;;
80425;SDS011;69766;51.476;5.704;2024-02-26T03:34:08;11.75;;;5.68;;
80425;SDS011;69766;51.476;5.704;2024-02-26T03:36:34;11.60;;;5.72;;
80425;SDS011;69766;51.476;5.704;2024-02-26T03:38:59;11.93;;;6.03;;
80425;SDS011;69766;51.476;5.704;2024-02-26T03:41:26;10.65;;;5.13;;
80425;SDS011;69766;51.476;5.704;2024-02-26T03:43:52;10.25;;;6.32;;
80425;SDS011;69766;51.476;5.704;2024-02-26T03:46:18;14.88;;;6.90;;
80425;SDS011;69766;51.476;5.704;2024-02-26T03:48:43;11.65;;;5.78;;
80425;SDS011;69766;51.476;5.704;2024-02-26T03:51:09;9.05;;;6.00;;
80425;SDS011;69766;51.476;5.704;2024-02-26T03:53:35;12.07;;;6.30;;
80425;SDS011;69766;51.476;5.704;2024-02-26T03:56:05;9.35;;;6.07;;
80425;SDS011;69766;51.476;5.704;2024-02-26T03:58:31;14.35;;;7.03;;
80425;SDS011;69766;51.476;5.704;2024-02-26T04:00:57;9.43;;;5.88;;
80425;SDS011;69766;51.476;5.704;2024-02-26T04:03:22;13.98;;;5.90;;
80425;SDS011;69766;51.476;5.704;2024-02-26T04:05:48;10.20;;;5.85;;
80425;SDS011;69766;51.476;5.704;2024-02-26T04:08:16;11.18;;;6.40;;
80425;SDS011;69766;51.476;5.704;2024-02-26T04:10:42;11.35;;;5.45;;
80425;SDS011;69766;51.476;5.704;2024-02-26T04:13:07;9.00;;;6.00;;
80425;SDS011;69766;51.476;5.704;2024-02-26T04:15:33;12.63;;;6.82;;
80425;SDS011;69766;51.476;5.704;2024-02-26T04:17:59;11.05;;;6.60;;
80425;SDS011;69766;51.476;5.704;2024-02-26T04:20:25;11.80;;;6.40;;
80425;SDS011;69766;51.476;5.704;2024-02-26T04:22:51;11.35;;;7.15;;
80425;SDS011;69766;51.476;5.704;2024-02-26T04:25:16;10.15;;;6.60;;
80425;SDS011;69766;51.476;5.704;2024-02-26T04:27:42;11.00;;;7.20;;
80425;SDS011;69766;51.476;5.704;2024-02-26T04:30:08;10.93;;;6.90;;
80425;SDS011;69766;51.476;5.704;2024-02-26T04:32:34;11.05;;;6.43;;
80425;SDS011;69766;51.476;5.704;2024-02-26T04:35:00;11.90;;;6.97;;
80425;SDS011;69766;51.476;5.704;2024-02-26T04:37:27;10.75;;;7.20;;
80425;SDS011;69766;51.476;5.704;2024-02-26T04:39:59;15.70;;;7.35;;
80425;SDS011;69766;51.476;5.704;2024-02-26T04:42:25;11.18;;;7.68;;
80425;SDS011;69766;51.476;5.704;2024-02-26T04:44:52;11.05;;;6.95;;
80425;SDS011;69766;51.476;5.704;2024-02-26T04:47:18;13.10;;;7.85;;
80425;SDS011;69766;51.476;5.704;2024-02-26T04:49:43;10.65;;;7.00;;
80425;SDS011;69766;51.476;5.704;2024-02-26T04:52:09;11.88;;;7.88;;
80425;SDS011;69766;51.476;5.704;2024-02-26T04:54:35;13.60;;;7.80;;
80425;SDS011;69766;51.476;5.704;2024-02-26T04:57:00;14.48;;;7.97;;
80425;SDS011;69766;51.476;5.704;2024-02-26T04:59:26;12.68;;;8.27;;
80425;SDS011;69766;51.476;5.704;2024-02-26T05:01:52;13.52;;;8.10;;
80425;SDS011;69766;51.476;5.704;2024-02-26T05:04:18;14.20;;;7.82;;
80425;SDS011;69766;51.476;5.704;2024-02-26T05:06:44;11.95;;;8.23;;
80425;SDS011;69766;51.476;5.704;2024-02-26T05:09:09;14.70;;;8.63;;
80425;SDS011;69766;51.476;5.704;2024-02-26T05:11:35;12.80;;;8.30;;
80425;SDS011;69766;51.476;5.704;2024-02-26T05:14:01;11.95;;;7.30;;
80425;SDS011;69766;51.476;5.704;2024-02-26T05:16:27;12.50;;;7.93;;
80425;SDS011;69766;51.476;5.704;2024-02-26T05:18:55;13.07;;;9.02;;
80425;SDS011;69766;51.476;5.704;2024-02-26T05:21:20;13.50;;;8.07;;
80425;SDS011;69766;51.476;5.704;2024-02-26T05:23:46;12.23;;;8.20;;
80425;SDS011;69766;51.476;5.704;2024-02-26T05:26:28;14.60;;;8.77;;
80425;SDS011;69766;51.476;5.704;2024-02-26T05:28:54;12.98;;;7.90;;
80425;SDS011;69766;51.476;5.704;2024-02-26T05:31:24;14.48;;;7.53;;
80425;SDS011;69766;51.476;5.704;2024-02-26T05:33:50;11.45;;;7.53;;
80425;SDS011;69766;51.476;5.704;2024-02-26T05:36:19;13.98;;;7.75;;
80425;SDS011;69766;51.476;5.704;2024-02-26T05:38:47;15.30;;;7.40;;
80425;SDS011;69766;51.476;5.704;2024-02-26T05:41:16;13.38;;;7.63;;
80425;SDS011;69766;51.476;5.704;2024-02-26T05:43:48;13.00;;;8.00;;
80425;SDS011;69766;51.476;5.704;2024-02-26T05:46:16;14.02;;;8.02;;
80425;SDS011;69766;51.476;5.704;2024-02-26T05:48:48;13.95;;;8.30;;
80425;SDS011;69766;51.476;5.704;2024-02-26T05:51:15;16.20;;;8.10;;
80425;SDS011;69766;51.476;5.704;2024-02-26T05:53:41;13.27;;;7.90;;
80425;SDS011;69766;51.476;5.704;2024-02-26T05:56:07;12.43;;;7.35;;
80425;SDS011;69766;51.476;5.704;2024-02-26T05:58:33;12.65;;;7.72;;
80425;SDS011;69766;51.476;5.704;2024-02-26T06:00:59;11.45;;;8.13;;
80425;SDS011;69766;51.476;5.704;2024-02-26T06:03:25;12.73;;;7.43;;
80425;SDS011;69766;51.476;5.704;2024-02-26T06:05:51;12.85;;;7.53;;
80425;SDS011;69766;51.476;5.704;2024-02-26T06:08:17;11.60;;;7.65;;
80425;SDS011;69766;51.476;5.704;2024-02-26T06:10:43;14.77;;;8.20;;
80425;SDS011;69766;51.476;5.704;2024-02-26T06:13:09;12.85;;;7.47;;
80425;SDS011;69766;51.476;5.704;2024-02-26T06:15:34;15.20;;;7.88;;
80425;SDS011;69766;51.476;5.704;2024-02-26T06:18:00;12.40;;;7.25;;
80425;SDS011;69766;51.476;5.704;2024-02-26T06:20:26;11.23;;;7.60;;
80425;SDS011;69766;51.476;5.704;2024-02-26T06:22:51;12.25;;;7.68;;
80425;SDS011;69766;51.476;5.704;2024-02-26T06:25:17;10.18;;;6.95;;
80425;SDS011;69766;51.476;5.704;2024-02-26T06:27:43;12.77;;;8.13;;
80425;SDS011;69766;51.476;5.704;2024-02-26T06:30:09;12.95;;;7.75;;
80425;SDS011;69766;51.476;5.704;2024-02-26T06:32:36;12.98;;;7.85;;
80425;SDS011;69766;51.476;5.704;2024-02-26T06:35:02;10.82;;;6.90;;
80425;SDS011;69766;51.476;5.704;2024-02-26T06:37:34;14.07;;;7.28;;
80425;SDS011;69766;51.476;5.704;2024-02-26T06:40:00;11.63;;;6.78;;
80425;SDS011;69766;51.476;5.704;2024-02-26T06:42:28;12.52;;;7.82;;
80425;SDS011;69766;51.476;5.704;2024-02-26T06:44:55;14.20;;;7.85;;
80425;SDS011;69766;51.476;5.704;2024-02-26T06:47:21;11.90;;;7.38;;
80425;SDS011;69766;51.476;5.704;2024-02-26T06:49:46;11.07;;;7.97;;
80425;SDS011;69766;51.476;5.704;2024-02-26T06:52:12;13.05;;;7.53;;
80425;SDS011;69766;51.476;5.704;2024-02-26T06:54:38;13.70;;;8.10;;
80425;SDS011;69766;51.476;5.704;2024-02-26T06:57:03;11.80;;;7.85;;
80425;SDS011;69766;51.476;5.704;2024-02-26T06:59:29;13.00;;;8.00;;
80425;SDS011;69766;51.476;5.704;2024-02-26T07:01:55;15.02;;;8.10;;
80425;SDS011;69766;51.476;5.704;2024-02-26T07:04:20;15.55;;;8.70;;
80425;SDS011;69766;51.476;5.704;2024-02-26T07:06:46;12.30;;;7.80;;
80425;SDS011;69766;51.476;5.704;2024-02-26T07:09:12;13.95;;;7.60;;
80425;SDS011;69766;51.476;5.704;2024-02-26T07:11:38;16.85;;;9.43;;
80425;SDS011;69766;51.476;5.704;2024-02-26T07:14:11;14.65;;;9.35;;
80425;SDS011;69766;51.476;5.704;2024-02-26T07:16:37;15.30;;;9.18;;
80425;SDS011;69766;51.476;5.704;2024-02-26T07:19:03;18.13;;;9.77;;
80425;SDS011;69766;51.476;5.704;2024-02-26T07:21:29;14.85;;;10.13;;
80425;SDS011;69766;51.476;5.704;2024-02-26T07:23:55;15.38;;;9.52;;
80425;SDS011;69766;51.476;5.704;2024-02-26T07:26:21;17.63;;;9.55;;
80425;SDS011;69766;51.476;5.704;2024-02-26T07:28:49;16.88;;;10.70;;
80425;SDS011;69766;51.476;5.704;2024-02-26T07:31:15;16.02;;;10.15;;
80425;SDS011;69766;51.476;5.704;2024-02-26T07:33:42;16.70;;;10.43;;
80425;SDS011;69766;51.476;5.704;2024-02-26T07:36:07;19.75;;;10.43;;
80425;SDS011;69766;51.476;5.704;2024-02-26T07:38:33;17.02;;;10.43;;
80425;SDS011;69766;51.476;5.704;2024-02-26T07:40:59;17.10;;;10.93;;
80425;SDS011;69766;51.476;5.704;2024-02-26T07:43:26;15.95;;;9.60;;
80425;SDS011;69766;51.476;5.704;2024-02-26T07:45:51;16.63;;;10.93;;
80425;SDS011;69766;51.476;5.704;2024-02-26T07:48:17;20.52;;;10.65;;
80425;SDS011;69766;51.476;5.704;2024-02-26T07:50:43;17.83;;;10.52;;
80425;SDS011;69766;51.476;5.704;2024-02-26T07:53:08;18.13;;;9.70;;
80425;SDS011;69766;51.476;5.704;2024-02-26T07:55:34;15.45;;;9.73;;
80425;SDS011;69766;51.476;5.704;2024-02-26T07:58:00;16.48;;;9.70;;
80425;SDS011;69766;51.476;5.704;2024-02-26T08:00:26;14.75;;;9.45;;
80425;SDS011;69766;51.476;5.704;2024-02-26T08:02:51;15.38;;;9.50;;
80425;SDS011;69766;51.476;5.704;2024-02-26T08:05:17;18.55;;;10.15;;
80425;SDS011;69766;51.476;5.704;2024-02-26T08:07:43;15.38;;;9.32;;
80425;SDS011;69766;51.476;5.704;2024-02-26T08:10:08;15.90;;;8.48;;
80425;SDS011;69766;51.476;5.704;2024-02-26T08:12:35;12.93;;;8.52;;
80425;SDS011;69766;51.476;5.704;2024-02-26T08:15:01;12.10;;;7.50;;
80425;SDS011;69766;51.476;5.704;2024-02-26T08:17:27;12.60;;;7.65;;
80425;SDS011;69766;51.476;5.704;2024-02-26T08:19:53;12.25;;;7.65;;
80425;SDS011;69766;51.476;5.704;2024-02-26T08:22:19;13.80;;;7.57;;
80425;SDS011;69766;51.476;5.704;2024-02-26T08:24:44;10.98;;;7.43;;
80425;SDS011;69766;51.476;5.704;2024-02-26T08:27:10;10.68;;;7.22;;
80425;SDS011;69766;51.476;5.704;2024-02-26T08:29:36;13.40;;;7.78;;
80425;SDS011;69766;51.476;5.704;2024-02-26T08:32:02;13.27;;;7.97;;
80425;SDS011;69766;51.476;5.704;2024-02-26T08:34:28;12.43;;;7.47;;
80425;SDS011;69766;51.476;5.704;2024-02-26T08:36:54;11.80;;;7.20;;
80425;SDS011;69766;51.476;5.704;2024-02-26T08:39:20;11.95;;;8.15;;
80425;SDS011;69766;51.476;5.704;2024-02-26T08:41:45;11.65;;;7.47;;
80425;SDS011;69766;51.476;5.704;2024-02-26T08:47:38;11.50;;;7.68;;
80425;SDS011;69766;51.476;5.704;2024-02-26T08:50:04;14.07;;;8.60;;
80425;SDS011;69766;51.476;5.704;2024-02-26T08:52:30;13.18;;;8.45;;
80425;SDS011;69766;51.476;5.704;2024-02-26T08:54:56;16.02;;;9.35;;
80425;SDS011;69766;51.476;5.704;2024-02-26T08:57:22;14.02;;;9.15;;
80425;SDS011;69766;51.476;5.704;2024-02-26T08:59:48;15.75;;;9.57;;
80425;SDS011;69766;51.476;5.704;2024-02-26T09:02:13;13.93;;;8.82;;
80425;SDS011;69766;51.476;5.704;2024-02-26T09:04:39;14.02;;;8.13;;
80425;SDS011;69766;51.476;5.704;2024-02-26T09:07:05;13.02;;;8.50;;
80425;SDS011;69766;51.476;5.704;2024-02-26T09:09:31;15.10;;;9.80;;
80425;SDS011;69766;51.476;5.704;2024-02-26T09:11:56;15.13;;;10.13;;
80425;SDS011;69766;51.476;5.704;2024-02-26T09:14:22;14.68;;;9.43;;
80425;SDS011;69766;51.476;5.704;2024-02-26T09:16:48;13.20;;;9.93;;
80425;SDS011;69766;51.476;5.704;2024-02-26T09:19:14;13.32;;;9.07;;
80425;SDS011;69766;51.476;5.704;2024-02-26T09:21:43;16.58;;;10.27;;
80425;SDS011;69766;51.476;5.704;2024-02-26T09:24:10;15.13;;;10.03;;
80425;SDS011;69766;51.476;5.704;2024-02-26T09:26:37;20.13;;;11.13;;
80425;SDS011;69766;51.476;5.704;2024-02-26T09:29:02;15.27;;;10.05;;
80425;SDS011;69766;51.476;5.704;2024-02-26T09:31:29;15.30;;;10.57;;
80425;SDS011;69766;51.476;5.704;2024-02-26T09:33:55;14.70;;;9.68;;
80425;SDS011;69766;51.476;5.704;2024-02-26T09:36:21;15.95;;;10.05;;
80425;SDS011;69766;51.476;5.704;2024-02-26T09:38:47;16.48;;;10.18;;
80425;SDS011;69766;51.476;5.704;2024-02-26T09:41:16;21.23;;;11.20;;
80425;SDS011;69766;51.476;5.704;2024-02-26T09:43:43;15.60;;;9.82;;
80425;SDS011;69766;51.476;5.704;2024-02-26T09:46:11;17.90;;;11.07;;
80425;SDS011;69766;51.476;5.704;2024-02-26T09:48:37;18.05;;;10.77;;
80425;SDS011;69766;51.476;5.704;2024-02-26T09:51:03;16.88;;;10.85;;
80425;SDS011;69766;51.476;5.704;2024-02-26T09:53:29;17.23;;;10.75;;
80425;SDS011;69766;51.476;5.704;2024-02-26T09:56:00;19.20;;;12.00;;
80425;SDS011;69766;51.476;5.704;2024-02-26T09:58:27;16.80;;;11.18;;
80425;SDS011;69766;51.476;5.704;2024-02-26T10:00:55;19.15;;;11.82;;
80425;SDS011;69766;51.476;5.704;2024-02-26T10:03:25;17.70;;;11.47;;
80425;SDS011;69766;51.476;5.704;2024-02-26T10:05:56;20.88;;;12.43;;
80425;SDS011;69766;51.476;5.704;2024-02-26T10:08:22;19.38;;;12.45;;
80425;SDS011;69766;51.476;5.704;2024-02-26T10:10:48;19.52;;;11.45;;
80425;SDS011;69766;51.476;5.704;2024-02-26T10:13:15;19.13;;;11.45;;
80425;SDS011;69766;51.476;5.704;2024-02-26T10:15:41;18.88;;;10.82;;
80425;SDS011;69766;51.476;5.704;2024-02-26T10:18:07;17.70;;;10.77;;
80425;SDS011;69766;51.476;5.704;2024-02-26T10:20:33;18.10;;;10.70;;
80425;SDS011;69766;51.476;5.704;2024-02-26T10:23:02;19.15;;;12.10;;
80425;SDS011;69766;51.476;5.704;2024-02-26T10:25:29;17.23;;;9.73;;
80425;SDS011;69766;51.476;5.704;2024-02-26T10:27:57;20.58;;;11.38;;
80425;SDS011;69766;51.476;5.704;2024-02-26T10:30:27;15.90;;;10.07;;
80425;SDS011;69766;51.476;5.704;2024-02-26T10:32:53;18.73;;;11.00;;
80425;SDS011;69766;51.476;5.704;2024-02-26T10:35:20;18.65;;;11.10;;
80425;SDS011;69766;51.476;5.704;2024-02-26T10:37:47;16.85;;;10.65;;
80425;SDS011;69766;51.476;5.704;2024-02-26T10:40:14;16.20;;;10.40;;
80425;SDS011;69766;51.476;5.704;2024-02-26T10:42:41;16.67;;;10.57;;
80425;SDS011;69766;51.476;5.704;2024-02-26T10:45:08;16.58;;;10.40;;
80425;SDS011;69766;51.476;5.704;2024-02-26T10:47:37;18.05;;;10.98;;
80425;SDS011;69766;51.476;5.704;2024-02-26T10:52:31;18.10;;;10.95;;
80425;SDS011;69766;51.476;5.704;2024-02-26T10:55:00;18.50;;;10.55;;
80425;SDS011;69766;51.476;5.704;2024-02-26T10:57:37;23.50;;;12.60;;
80425;SDS011;69766;51.476;5.704;2024-02-26T11:00:05;20.58;;;12.50;;
80425;SDS011;69766;51.476;5.704;2024-02-26T11:02:34;19.75;;;12.00;;
80425;SDS011;69766;51.476;5.704;2024-02-26T11:05:04;19.30;;;11.63;;
80425;SDS011;69766;51.476;5.704;2024-02-26T11:07:31;22.67;;;12.75;;
80425;SDS011;69766;51.476;5.704;2024-02-26T11:09:59;20.00;;;12.07;;
80425;SDS011;69766;51.476;5.704;2024-02-26T11:12:26;23.38;;;13.48;;
80425;SDS011;69766;51.476;5.704;2024-02-26T11:14:54;21.08;;;12.57;;
80425;SDS011;69766;51.476;5.704;2024-02-26T11:17:26;22.75;;;13.60;;
80425;SDS011;69766;51.476;5.704;2024-02-26T11:19:57;25.13;;;14.63;;
80425;SDS011;69766;51.476;5.704;2024-02-26T11:22:26;23.88;;;15.10;;
80425;SDS011;69766;51.476;5.704;2024-02-26T11:24:53;22.55;;;12.68;;
80425;SDS011;69766;51.476;5.704;2024-02-26T11:27:23;21.65;;;13.60;;
80425;SDS011;69766;51.476;5.704;2024-02-26T11:29:55;22.20;;;13.65;;
80425;SDS011;69766;51.476;5.704;2024-02-26T11:32:24;20.95;;;13.10;;
80425;SDS011;69766;51.476;5.704;2024-02-26T11:34:55;26.55;;;14.60;;
80425;SDS011;69766;51.476;5.704;2024-02-26T11:37:22;23.80;;;14.52;;
80425;SDS011;69766;51.476;5.704;2024-02-26T11:39:47;25.77;;;15.02;;
80425;SDS011;69766;51.476;5.704;2024-02-26T11:42:16;26.42;;;14.98;;
80425;SDS011;69766;51.476;5.704;2024-02-26T11:44:42;29.13;;;16.10;;
80425;SDS011;69766;51.476;5.704;2024-02-26T11:47:11;28.70;;;15.77;;
80425;SDS011;69766;51.476;5.704;2024-02-26T11:49:38;29.58;;;15.60;;
80425;SDS011;69766;51.476;5.704;2024-02-26T11:52:05;30.10;;;16.45;;
80425;SDS011;69766;51.476;5.704;2024-02-26T11:57:29;31.08;;;16.48;;
80425;SDS011;69766;51.476;5.704;2024-02-26T12:00:14;32.72;;;16.90;;
80425;SDS011;69766;51.476;5.704;2024-02-26T12:02:49;29.35;;;16.73;;
80425;SDS011;69766;51.476;5.704;2024-02-26T12:05:23;30.45;;;17.52;;
80425;SDS011;69766;51.476;5.704;2024-02-26T12:07:52;31.67;;;16.50;;
80425;SDS011;69766;51.476;5.704;2024-02-26T12:13:03;29.58;;;16.17;;
80425;SDS011;69766;51.476;5.704;2024-02-26T12:15:41;32.97;;;16.67;;
80425;SDS011;69766;51.476;5.704;2024-02-26T12:18:15;33.00;;;16.95;;
80425;SDS011;69766;51.476;5.704;2024-02-26T12:20:43;31.42;;;16.95;;
80425;SDS011;69766;51.476;5.704;2024-02-26T12:23:09;38.63;;;16.60;;
80425;SDS011;69766;51.476;5.704;2024-02-26T12:25:42;31.52;;;15.75;;
80425;SDS011;69766;51.476;5.704;2024-02-26T12:28:09;30.27;;;16.25;;
80425;SDS011;69766;51.476;5.704;2024-02-26T12:30:34;36.17;;;16.77;;
80425;SDS011;69766;51.476;5.704;2024-02-26T12:33:03;35.55;;;15.85;;
80425;SDS011;69766;51.476;5.704;2024-02-26T12:35:29;31.80;;;15.20;;
80425;SDS011;69766;51.476;5.704;2024-02-26T12:37:57;38.80;;;17.48;;
80425;SDS011;69766;51.476;5.704;2024-02-26T12:40:23;36.47;;;17.23;;
80425;SDS011;69766;51.476;5.704;2024-02-26T12:42:49;37.35;;;18.42;;
80425;SDS011;69766;51.476;5.704;2024-02-26T12:45:15;43.03;;;18.45;;
80425;SDS011;69766;51.476;5.704;2024-02-26T12:47:44;39.38;;;17.33;;
80425;SDS011;69766;51.476;5.704;2024-02-26T12:50:17;39.30;;;17.48;;
80425;SDS011;69766;51.476;5.704;2024-02-26T12:52:43;40.38;;;17.00;;
80425;SDS011;69766;51.476;5.704;2024-02-26T12:55:11;41.05;;;17.27;;
80425;SDS011;69766;51.476;5.704;2024-02-26T12:57:43;39.35;;;18.00;;
80425;SDS011;69766;51.476;5.704;2024-02-26T13:00:11;40.30;;;18.10;;
80425;SDS011;69766;51.476;5.704;2024-02-26T13:02:39;41.08;;;17.15;;
80425;SDS011;69766;51.476;5.704;2024-02-26T13:05:09;43.03;;;18.88;;
80425;SDS011;69766;51.476;5.704;2024-02-26T13:07:43;40.83;;;17.73;;
80425;SDS011;69766;51.476;5.704;2024-02-26T13:10:09;41.70;;;16.77;;
80425;SDS011;69766;51.476;5.704;2024-02-26T13:12:42;42.17;;;18.33;;
80425;SDS011;69766;51.476;5.704;2024-02-26T13:15:16;45.78;;;20.60;;
80425;SDS011;69766;51.476;5.704;2024-02-26T13:17:44;44.70;;;19.90;;
80425;SDS011;69766;51.476;5.704;2024-02-26T13:20:13;50.15;;;19.63;;
80425;SDS011;69766;51.476;5.704;2024-02-26T13:22:50;49.20;;;19.60;;
80425;SDS011;69766;51.476;5.704;2024-02-26T13:25:20;50.78;;;21.10;;
80425;SDS011;69766;51.476;5.704;2024-02-26T13:27:46;45.67;;;18.52;;
80425;SDS011;69766;51.476;5.704;2024-02-26T13:30:12;45.60;;;18.25;;
80425;SDS011;69766;51.476;5.704;2024-02-26T13:32:39;47.55;;;18.40;;
80425;SDS011;69766;51.476;5.704;2024-02-26T13:35:09;46.90;;;19.40;;
80425;SDS011;69766;51.476;5.704;2024-02-26T13:37:38;42.25;;;18.50;;
80425;SDS011;69766;51.476;5.704;2024-02-26T13:40:05;43.38;;;19.55;;
80425;SDS011;69766;51.476;5.704;2024-02-26T13:42:33;39.92;;;17.17;;
80425;SDS011;69766;51.476;5.704;2024-02-26T13:44:59;43.80;;;18.52;;
80425;SDS011;69766;51.476;5.704;2024-02-26T13:47:25;41.58;;;18.52;;
80425;SDS011;69766;51.476;5.704;2024-02-26T13:49:51;46.03;;;18.60;;
80425;SDS011;69766;51.476;5.704;2024-02-26T13:52:17;40.75;;;17.90;;
80425;SDS011;69766;51.476;5.704;2024-02-26T13:54:45;40.67;;;16.95;;
80425;SDS011;69766;51.476;5.704;2024-02-26T13:57:11;38.35;;;16.48;;
80425;SDS011;69766;51.476;5.704;2024-02-26T13:59:36;38.75;;;17.42;;
80425;SDS011;69766;51.476;5.704;2024-02-26T14:02:02;39.38;;;16.05;;
80425;SDS011;69766;51.476;5.704;2024-02-26T14:04:29;37.97;;;15.48;;
80425;SDS011;69766;51.476;5.704;2024-02-26T14:06:54;38.50;;;16.05;;
80425;SDS011;69766;51.476;5.704;2024-02-26T14:09:20;36.63;;;16.48;;
80425;SDS011;69766;51.476;5.704;2024-02-26T14:11:46;37.30;;;16.48;;
80425;SDS011;69766;51.476;5.704;2024-02-26T14:14:11;34.67;;;14.88;;
80425;SDS011;69766;51.476;5.704;2024-02-26T14:16:37;32.65;;;14.10;;
80425;SDS011;69766;51.476;5.704;2024-02-26T14:19:03;36.08;;;14.93;;
80425;SDS011;69766;51.476;5.704;2024-02-26T14:21:29;33.90;;;14.48;;
80425;SDS011;69766;51.476;5.704;2024-02-26T14:23:54;28.67;;;13.15;;
80425;SDS011;69766;51.476;5.704;2024-02-26T14:26:21;32.28;;;12.90;;
80425;SDS011;69766;51.476;5.704;2024-02-26T14:28:49;31.67;;;13.07;;
80425;SDS011;69766;51.476;5.704;2024-02-26T14:31:18;27.63;;;13.27;;
80425;SDS011;69766;51.476;5.704;2024-02-26T14:33:44;28.17;;;12.48;;
80425;SDS011;69766;51.476;5.704;2024-02-26T14:36:10;24.63;;;13.15;;
80425;SDS011;69766;51.476;5.704;2024-02-26T14:38:36;24.02;;;11.77;;
80425;SDS011;69766;51.476;5.704;2024-02-26T14:41:02;23.67;;;11.25;;
80425;SDS011;69766;51.476;5.704;2024-02-26T14:43:28;24.75;;;11.85;;